Allerton, Illinois
Current Conditions -  °F | °C
As of 8:53 PM on Friday 31 Oct 2014 (Local Time) from KCMI Reporting Station
Few Clouds Few Clouds  
Wind Chill: 24°   Ceiling: Unl
Heat Index: 36°   Visibility: 10mi
Dew Point: 21°   Wind: 23mph
Humidity: 55%   Direction: 340°NNW
Pressure: 30.28"   Gusts: 31mph
Location:  39.91°N, 87.94°W
Report Text: KCMI 010153Z 34020G27KT 10SM FEW042 02/M06 A3028 RMK AO2 PK WND 34031/0054 SLP259 T00221061 $
Loading
Personal Weather Stations






























Interactive Weather Map
Tropical Storm Tracking
New forecast layout! Learn more

10-Day Weather Forecast

Advertisements
Track Severe Weather on mobile